createdAt,value
2023-05-15T00:00:53.053Z,98756.38
2023-05-15T00:03:22.488Z,98759.75
2023-05-15T00:05:50.853Z,98756.59
2023-05-15T00:08:19.059Z,98746.00
2023-05-15T00:10:57.528Z,98743.63
2023-05-15T00:13:29.254Z,98743.94
2023-05-15T00:15:57.778Z,98742.25
2023-05-15T00:18:27.504Z,98740.56
2023-05-15T00:20:55.699Z,98749.06
2023-05-15T00:23:23.772Z,98738.22
2023-05-15T00:25:52.048Z,98745.09
2023-05-15T00:28:20.151Z,98734.13
2023-05-15T00:30:48.059Z,98738.75
2023-05-15T00:33:16.968Z,98736.50
2023-05-15T00:35:46.327Z,98730.19
2023-05-15T00:38:14.355Z,98723.53
2023-05-15T00:40:44.485Z,98728.47
2023-05-15T00:43:13.497Z,98722.47
2023-05-15T00:45:43.444Z,98712.31
2023-05-15T00:48:11.704Z,98709.13
2023-05-15T00:50:41.468Z,98702.94
2023-05-15T00:53:12.100Z,98697.84
2023-05-15T00:55:41.767Z,98697.84
2023-05-15T00:58:11.973Z,98704.19
2023-05-15T01:00:40.796Z,98704.63
2023-05-15T01:03:09.465Z,98697.28
2023-05-15T01:05:37.699Z,98679.09
2023-05-15T01:08:17.456Z,98674.81
2023-05-15T01:10:46.794Z,98678.91
2023-05-15T01:13:15.771Z,98670.28
2023-05-15T01:15:44.583Z,98674.00
2023-05-15T01:18:12.771Z,98677.75
2023-05-15T01:20:51.409Z,98682.16
2023-05-15T01:23:30.819Z,98678.09
2023-05-15T01:26:29.391Z,98660.91
2023-05-15T01:29:02.682Z,98660.59
2023-05-15T01:31:33.055Z,98664.88
2023-05-15T01:34:08.030Z,98667.13
2023-05-15T01:36:38.839Z,98673.44
2023-05-15T01:39:08.335Z,98675.84
2023-05-15T01:41:42.945Z,98664.75
2023-05-15T01:44:18.600Z,98660.81
2023-05-15T01:46:51.225Z,98674.69
2023-05-15T01:49:21.143Z,98679.53
2023-05-15T01:51:54.209Z,98666.00
2023-05-15T01:54:23.877Z,98663.63
2023-05-15T01:56:53.535Z,98665.56
2023-05-15T01:59:24.440Z,98658.31
2023-05-15T02:01:53.475Z,98663.16
2023-05-15T02:04:22.246Z,98649.28
2023-05-15T02:06:51.185Z,98657.50
2023-05-15T02:09:21.279Z,98649.09
2023-05-15T02:11:49.687Z,98648.84
2023-05-15T02:14:18.551Z,98646.00
2023-05-15T02:16:48.012Z,98639.78
2023-05-15T02:19:16.208Z,98633.00
2023-05-15T02:21:44.337Z,98637.38
2023-05-15T02:24:12.276Z,98629.38
2023-05-15T02:26:48.196Z,98634.13
2023-05-15T02:29:21.895Z,98629.56
2023-05-15T02:32:00.816Z,98634.31
2023-05-15T02:34:36.066Z,98635.22
2023-05-15T02:37:08.705Z,98631.13
2023-05-15T02:39:37.009Z,98630.88
2023-05-15T02:42:06.662Z,98616.16
2023-05-15T02:44:37.807Z,98627.81
2023-05-15T02:47:08.873Z,98633.78
2023-05-15T02:49:37.580Z,98634.22
2023-05-15T02:52:06.663Z,98645.06
2023-05-15T02:54:34.746Z,98645.41
2023-05-15T02:57:02.709Z,98644.63
2023-05-15T02:59:30.772Z,98652.78
2023-05-15T03:01:59.085Z,98638.06
2023-05-15T03:04:28.439Z,98635.34
2023-05-15T03:06:56.599Z,98641.13
2023-05-15T03:09:25.474Z,98643.38
2023-05-15T03:11:53.598Z,98629.03
2023-05-15T03:14:21.914Z,98639.88
2023-05-15T03:16:49.928Z,98627.47
2023-05-15T03:19:18.882Z,98630.97
2023-05-15T03:21:48.408Z,98633.22
2023-05-15T03:24:16.476Z,98627.81
2023-05-15T03:26:45.156Z,98629.50
2023-05-15T03:29:13.222Z,98624.84
2023-05-15T03:31:41.135Z,98615.56
2023-05-15T03:34:09.039Z,98619.50
2023-05-15T03:36:37.140Z,98623.47
2023-05-15T03:39:06.607Z,98618.13
2023-05-15T03:41:34.652Z,98614.28
2023-05-15T03:44:02.594Z,98615.16
2023-05-15T03:46:30.699Z,98620.69
2023-05-15T03:48:58.846Z,98637.88
2023-05-15T03:51:27.096Z,98630.97
2023-05-15T03:53:55.688Z,98631.38
2023-05-15T03:56:25.348Z,98632.28
2023-05-15T03:58:54.366Z,98627.72
2023-05-15T04:01:22.399Z,98625.13
2023-05-15T04:03:50.532Z,98626.34
2023-05-15T04:06:18.547Z,98626.06
2023-05-15T04:08:46.673Z,98620.38
2023-05-15T04:11:14.673Z,98623.19
2023-05-15T04:13:44.164Z,98629.84
2023-05-15T04:16:12.209Z,98638.44
2023-05-15T04:18:40.266Z,98628.03
2023-05-15T04:21:08.192Z,98624.94
2023-05-15T04:23:36.275Z,98629.00
2023-05-15T04:26:04.257Z,98618.66
2023-05-15T04:28:32.802Z,98612.28
2023-05-15T04:31:02.523Z,98614.72
2023-05-15T04:33:30.622Z,98620.41
2023-05-15T04:36:01.113Z,98631.09
2023-05-15T04:38:28.993Z,98630.66
2023-05-15T04:40:57.068Z,98629.75
2023-05-15T04:43:25.061Z,98632.34
2023-05-15T04:45:53.080Z,98633.34
2023-05-15T04:48:22.440Z,98630.81
2023-05-15T04:50:51.198Z,98634.09
2023-05-15T04:53:19.156Z,98633.19
2023-05-15T04:55:47.226Z,98629.97
2023-05-15T04:58:15.253Z,98624.81
2023-05-15T05:00:43.301Z,98619.22
2023-05-15T05:03:11.611Z,98621.06
2023-05-15T05:05:41.030Z,98617.78
2023-05-15T05:08:08.968Z,98622.94
2023-05-15T05:10:36.980Z,98620.81
2023-05-15T05:13:04.905Z,98614.75
2023-05-15T05:15:32.998Z,98608.72
2023-05-15T05:18:01.005Z,98607.75
2023-05-15T05:20:28.991Z,98619.22
2023-05-15T05:22:58.409Z,98625.66
2023-05-15T05:25:26.622Z,98617.31
2023-05-15T05:27:54.721Z,98617.53
2023-05-15T05:30:23.214Z,98611.69
2023-05-15T05:32:51.227Z,98606.88
2023-05-15T05:35:19.275Z,98609.78
2023-05-15T05:37:47.298Z,98614.63
2023-05-15T05:40:17.725Z,98606.97
2023-05-15T05:42:45.654Z,98606.25
2023-05-15T05:45:13.698Z,98609.81
2023-05-15T05:47:41.717Z,98609.84
2023-05-15T05:50:10.140Z,98600.16
2023-05-15T05:52:38.482Z,98598.28
2023-05-15T05:55:07.229Z,98592.47
2023-05-15T05:57:36.871Z,98592.91
2023-05-15T06:00:06.583Z,98588.69
2023-05-15T06:02:34.735Z,98595.81
2023-05-15T06:05:02.978Z,98583.34
2023-05-15T06:07:30.825Z,98590.38
2023-05-15T06:09:58.917Z,98583.72
2023-05-15T06:12:27.932Z,98582.16
2023-05-15T06:14:57.317Z,98573.19
2023-05-15T06:17:25.694Z,98558.78
2023-05-15T06:19:53.712Z,98559.56
2023-05-15T06:22:21.889Z,98565.50
2023-05-15T06:24:50.176Z,98563.59
2023-05-15T06:27:18.116Z,98578.88
2023-05-15T06:29:46.241Z,98569.09
2023-05-15T06:32:15.534Z,98571.09
2023-05-15T06:34:43.698Z,98571.88
2023-05-15T06:37:12.622Z,98571.91
2023-05-15T06:39:41.055Z,98579.75
2023-05-15T06:42:09.220Z,98585.22
2023-05-15T06:44:37.248Z,98577.41
2023-05-15T06:47:07.139Z,98583.66
2023-05-15T06:49:36.594Z,98578.94
2023-05-15T06:52:04.858Z,98583.63
2023-05-15T06:54:32.894Z,98585.19
2023-05-15T06:57:01.045Z,98588.69
2023-05-15T06:59:29.018Z,98592.19
2023-05-15T07:01:57.137Z,98589.03
2023-05-15T07:04:25.212Z,98591.75
2023-05-15T07:06:54.564Z,98588.22
2023-05-15T07:09:22.688Z,98578.41
2023-05-15T07:11:50.635Z,98578.38
2023-05-15T07:14:18.733Z,98576.00
2023-05-15T07:16:47.253Z,98575.94
2023-05-15T07:19:18.899Z,98570.78
2023-05-15T07:21:47.011Z,98574.59
2023-05-15T07:24:16.543Z,98571.78
2023-05-15T07:26:57.546Z,98569.69
2023-05-15T07:29:26.598Z,98569.59
2023-05-15T07:31:54.946Z,98569.59
2023-05-15T07:34:23.622Z,98561.75
2023-05-15T07:36:51.830Z,98556.25
2023-05-15T07:39:21.391Z,98552.72
2023-05-15T07:41:52.629Z,98555.13
2023-05-15T07:44:20.857Z,98547.63
2023-05-15T07:46:49.000Z,98553.81
2023-05-15T07:49:16.979Z,98545.13
2023-05-15T07:51:45.055Z,98540.69
2023-05-15T07:54:13.006Z,98548.84
2023-05-15T07:56:42.623Z,98554.28
2023-05-15T07:59:10.704Z,98555.69
2023-05-15T08:01:38.669Z,98554.38
2023-05-15T08:04:10.134Z,98556.41
2023-05-15T08:06:39.307Z,98546.53
2023-05-15T08:09:07.938Z,98550.00
2023-05-15T08:11:36.038Z,98549.19
2023-05-15T08:14:05.484Z,98555.84
2023-05-15T08:16:33.751Z,98550.94
2023-05-15T08:19:04.935Z,98555.50
2023-05-15T08:21:32.988Z,98561.72
2023-05-15T08:24:01.452Z,98560.94
2023-05-15T08:26:29.404Z,98551.97
2023-05-15T08:28:57.777Z,98550.09
2023-05-15T08:31:27.182Z,98552.41
2023-05-15T08:33:55.268Z,98550.78
2023-05-15T08:36:23.503Z,98540.88
2023-05-15T08:38:51.820Z,98550.66
2023-05-15T08:41:40.521Z,98537.94
2023-05-15T08:44:11.131Z,98547.72
2023-05-15T08:46:41.044Z,98557.50
2023-05-15T08:49:16.038Z,98544.97
2023-05-15T08:51:44.201Z,98550.94
2023-05-15T08:54:12.712Z,98543.88
2023-05-15T08:56:41.087Z,98545.38
2023-05-15T08:59:09.097Z,98538.34
2023-05-15T09:01:37.472Z,98528.38
2023-05-15T09:04:07.094Z,98530.34
2023-05-15T09:06:35.650Z,98533.88
2023-05-15T09:09:05.366Z,98534.97
2023-05-15T09:11:34.158Z,98538.72
2023-05-15T09:14:02.136Z,98548.34
2023-05-15T09:16:30.166Z,98552.22
2023-05-15T09:19:00.336Z,98546.94
2023-05-15T09:21:31.415Z,98550.13
2023-05-15T09:24:18.264Z,98562.66
2023-05-15T09:26:48.109Z,98556.31
2023-05-15T09:29:19.435Z,98564.53
2023-05-15T09:31:48.466Z,98563.31
2023-05-15T09:34:17.051Z,98560.47
2023-05-15T09:36:46.474Z,98565.81
2023-05-15T09:39:14.532Z,98561.25
2023-05-15T09:41:44.758Z,98559.38
2023-05-15T09:44:26.084Z,98555.19
2023-05-15T09:46:54.340Z,98555.06
2023-05-15T09:49:22.386Z,98555.06
2023-05-15T09:51:51.924Z,98543.06
2023-05-15T09:54:20.488Z,98536.53
2023-05-15T09:56:49.084Z,98558.38
2023-05-15T09:59:21.696Z,98554.59
2023-05-15T10:01:50.870Z,98546.75
2023-05-15T10:04:18.922Z,98537.59
2023-05-15T10:06:48.786Z,98539.84
2023-05-15T10:09:18.339Z,98546.75
2023-05-15T10:11:51.486Z,98552.16
2023-05-15T10:14:21.047Z,98543.44
2023-05-15T10:16:49.482Z,98551.25
2023-05-15T10:19:20.989Z,98550.09
2023-05-15T10:21:49.502Z,98551.03
2023-05-15T10:24:21.676Z,98545.47
2023-05-15T10:26:50.608Z,98546.50
2023-05-15T10:29:21.194Z,98532.97
2023-05-15T10:31:50.490Z,98536.75
2023-05-15T10:34:22.722Z,98532.19
2023-05-15T10:36:51.127Z,98532.50
2023-05-15T10:39:21.781Z,98532.03
2023-05-15T10:41:52.026Z,98531.88
2023-05-15T10:44:21.628Z,98537.91
2023-05-15T10:46:50.231Z,98542.56
2023-05-15T10:49:18.585Z,98550.41
2023-05-15T10:51:46.594Z,98559.63
2023-05-15T10:54:15.296Z,98559.38
2023-05-15T10:56:47.113Z,98564.56
2023-05-15T10:59:14.986Z,98560.41
2023-05-15T11:01:43.357Z,98563.31
2023-05-15T11:04:13.662Z,98562.78
2023-05-15T11:06:43.892Z,98576.44
2023-05-15T11:09:37.256Z,98576.06
2023-05-15T11:12:08.857Z,98575.31
2023-05-15T11:14:39.070Z,98576.06
2023-05-15T11:17:09.807Z,98572.38
2023-05-15T11:19:59.000Z,98556.91
2023-05-15T11:22:33.193Z,98561.69
2023-05-15T11:25:03.991Z,98565.00
2023-05-15T11:27:34.749Z,98569.06
2023-05-15T11:30:13.339Z,98563.78
2023-05-15T11:32:42.974Z,98552.72
2023-05-15T11:35:15.589Z,98545.97
2023-05-15T11:37:45.136Z,98549.06
2023-05-15T11:40:20.333Z,98549.72
2023-05-15T11:43:03.159Z,98550.50
2023-05-15T11:45:32.410Z,98554.53
2023-05-15T11:48:02.892Z,98557.47
2023-05-15T11:50:33.783Z,98552.88
2023-05-15T11:53:06.570Z,98563.06
2023-05-15T11:55:36.833Z,98554.31
2023-05-15T11:58:07.672Z,98553.53
2023-05-15T12:00:35.679Z,98556.00
2023-05-15T12:03:04.922Z,98558.19
2023-05-15T12:05:33.100Z,98546.50
2023-05-15T12:08:02.474Z,98551.16
2023-05-15T12:10:31.417Z,98548.91
2023-05-15T12:13:00.155Z,98546.66
2023-05-15T12:15:29.636Z,98545.25
2023-05-15T12:17:57.590Z,98551.19
2023-05-15T12:20:26.300Z,98547.41
2023-05-15T12:22:54.624Z,98539.66
2023-05-15T12:25:22.787Z,98538.66
2023-05-15T12:27:51.041Z,98537.19
2023-05-15T12:30:19.446Z,98532.72
2023-05-15T12:32:49.209Z,98521.38
2023-05-15T12:35:17.687Z,98518.63
2023-05-15T12:37:46.865Z,98520.81
2023-05-15T12:40:15.302Z,98522.88
2023-05-15T12:42:44.242Z,98531.50
2023-05-15T12:45:16.520Z,98531.50
2023-05-15T12:47:45.932Z,98537.84
2023-05-15T12:50:20.136Z,98541.06
2023-05-15T12:52:51.484Z,98536.28
2023-05-15T12:55:20.192Z,98524.13
2023-05-15T12:57:48.123Z,98530.03
2023-05-15T13:00:16.900Z,98531.16
2023-05-15T13:02:46.132Z,98530.25
2023-05-15T13:05:15.078Z,98526.97
2023-05-15T13:07:45.482Z,98536.38
2023-05-15T13:10:14.319Z,98534.22
2023-05-15T13:12:45.376Z,98520.50
2023-05-15T13:15:30.793Z,98520.94
2023-05-15T13:18:02.414Z,98522.88
2023-05-15T13:20:33.908Z,98520.50
2023-05-15T13:23:04.000Z,98526.41
2023-05-15T13:25:32.510Z,98516.47
2023-05-15T13:28:02.052Z,98506.59
2023-05-15T13:30:30.517Z,98506.84
2023-05-15T13:32:58.733Z,98490.44
2023-05-15T13:35:26.867Z,98476.78
2023-05-15T13:37:54.920Z,98483.22
2023-05-15T13:40:24.794Z,98491.72
2023-05-15T13:42:53.004Z,98487.00
2023-05-15T13:45:21.108Z,98492.22
2023-05-15T13:47:49.244Z,98497.19
2023-05-15T13:50:17.545Z,98488.84
2023-05-15T13:52:46.597Z,98484.81
2023-05-15T13:55:14.884Z,98479.44
2023-05-15T13:57:45.379Z,98479.56
2023-05-15T14:00:14.589Z,98473.78
2023-05-15T14:02:44.086Z,98469.56
2023-05-15T14:05:13.539Z,98467.69
2023-05-15T14:07:42.685Z,98449.31
2023-05-15T14:10:11.514Z,98458.78
2023-05-15T14:12:39.703Z,98454.28
2023-05-15T14:15:11.266Z,98449.38
2023-05-15T14:17:39.520Z,98450.97
2023-05-15T14:20:10.038Z,98442.16
2023-05-15T14:22:38.304Z,98442.16
2023-05-15T14:25:10.669Z,98442.59
2023-05-15T14:27:38.651Z,98447.81
2023-05-15T14:30:09.657Z,98443.56
2023-05-15T14:32:37.696Z,98454.97
2023-05-15T14:35:06.508Z,98453.31
2023-05-15T14:37:34.490Z,98442.59
2023-05-15T14:40:02.588Z,98443.72
2023-05-15T14:42:30.685Z,98440.78
2023-05-15T14:44:58.722Z,98446.88
2023-05-15T14:47:30.044Z,98449.03
2023-05-15T14:49:58.222Z,98449.94
2023-05-15T14:52:26.229Z,98467.00
2023-05-15T14:55:07.878Z,98460.22
2023-05-15T14:57:37.024Z,98469.34
2023-05-15T15:00:06.021Z,98465.16
2023-05-15T15:02:35.752Z,98453.75
2023-05-15T15:05:04.629Z,98452.84
2023-05-15T15:07:36.075Z,98447.28
2023-05-15T15:10:03.985Z,98444.25
2023-05-15T15:12:32.089Z,98439.22
2023-05-15T15:15:00.073Z,98446.72
2023-05-15T15:17:28.088Z,98438.25
2023-05-15T15:19:57.731Z,98437.47
2023-05-15T15:22:25.817Z,98435.97
2023-05-15T15:24:57.229Z,98434.84
2023-05-15T15:27:26.664Z,98437.19
2023-05-15T15:29:54.661Z,98446.31
2023-05-15T15:32:22.743Z,98448.31
2023-05-15T15:34:50.702Z,98438.22
2023-05-15T15:37:19.987Z,98437.41
2023-05-15T15:39:47.853Z,98430.78
2023-05-15T15:42:15.850Z,98418.44
2023-05-15T15:44:43.869Z,98414.69
2023-05-15T15:47:11.880Z,98423.88
2023-05-15T15:49:39.842Z,98422.09
2023-05-15T15:52:07.857Z,98419.13
2023-05-15T15:54:37.739Z,98414.09
2023-05-15T15:57:06.577Z,98412.06
2023-05-15T15:59:34.652Z,98412.06
2023-05-15T16:02:02.808Z,98409.22
2023-05-15T16:04:30.675Z,98412.28
2023-05-15T16:06:58.618Z,98405.47
2023-05-15T16:09:26.619Z,98408.97
2023-05-15T16:11:56.115Z,98404.13
2023-05-15T16:14:24.415Z,98400.75
2023-05-15T16:16:52.614Z,98405.28
2023-05-15T16:19:21.285Z,98402.34
2023-05-15T16:21:49.570Z,98400.66
2023-05-15T16:24:17.472Z,98404.44
2023-05-15T16:26:45.351Z,98398.69
2023-05-15T16:29:14.679Z,98404.25
2023-05-15T16:31:42.757Z,98405.63
2023-05-15T16:34:10.872Z,98408.97
2023-05-15T16:36:38.733Z,98404.75
2023-05-15T16:39:06.919Z,98405.28
2023-05-15T16:41:34.848Z,98410.09
2023-05-15T16:44:03.347Z,98397.97
2023-05-15T16:46:33.066Z,98407.13
2023-05-15T16:49:01.072Z,98406.03
2023-05-15T16:51:29.025Z,98397.41
2023-05-15T16:53:59.301Z,98399.03
2023-05-15T16:56:27.378Z,98397.59
2023-05-15T16:58:55.893Z,98396.06
2023-05-15T17:01:24.036Z,98392.22
2023-05-15T17:03:53.606Z,98387.53
2023-05-15T17:06:21.697Z,98394.81
2023-05-15T17:08:49.644Z,98393.78
2023-05-15T17:11:17.655Z,98396.25
2023-05-15T17:13:45.636Z,98389.25
2023-05-15T17:16:13.664Z,98391.66
2023-05-15T17:18:41.769Z,98395.63
2023-05-15T17:21:12.401Z,98397.72
2023-05-15T17:23:40.464Z,98402.94
2023-05-15T17:26:08.488Z,98395.16
2023-05-15T17:28:37.981Z,98406.13
2023-05-15T17:31:10.684Z,98402.25
2023-05-15T17:33:38.653Z,98423.91
2023-05-15T17:36:06.907Z,98422.38
2023-05-15T17:38:36.243Z,98424.38
2023-05-15T17:41:04.044Z,98419.69
2023-05-15T17:43:32.135Z,98429.88
2023-05-15T17:46:00.465Z,98437.72
2023-05-15T17:48:28.618Z,98442.47
2023-05-15T17:50:56.681Z,98457.00
2023-05-15T17:53:24.616Z,98465.22
2023-05-15T17:55:54.000Z,98465.63
2023-05-15T17:58:22.240Z,98468.44
2023-05-15T18:00:50.415Z,98473.53
2023-05-15T18:03:18.418Z,98481.78
2023-05-15T18:05:47.471Z,98475.53
2023-05-15T18:08:15.988Z,98483.00
2023-05-15T18:10:43.868Z,98484.94
2023-05-15T18:13:13.609Z,98499.81
2023-05-15T18:15:41.674Z,98502.94
2023-05-15T18:18:09.837Z,98512.34
2023-05-15T18:20:37.852Z,98524.09
2023-05-15T18:23:06.141Z,98525.28
2023-05-15T18:25:39.959Z,98537.41
2023-05-15T18:28:08.048Z,98547.19
2023-05-15T18:30:37.656Z,98556.97
2023-05-15T18:33:05.886Z,98558.50
2023-05-15T18:35:33.898Z,98557.69
2023-05-15T18:38:01.887Z,98560.41
2023-05-15T18:40:29.953Z,98560.34
2023-05-15T18:42:58.199Z,98565.44
2023-05-15T18:45:27.052Z,98563.47
2023-05-15T18:47:56.594Z,98570.09
2023-05-15T18:50:25.035Z,98575.16
2023-05-15T18:52:52.954Z,98573.97
2023-05-15T18:55:22.735Z,98584.09
2023-05-15T18:57:50.927Z,98591.91
2023-05-15T19:00:33.960Z,98594.22
2023-05-15T19:03:07.418Z,98604.34
2023-05-15T19:05:35.447Z,98605.13
2023-05-15T19:08:04.273Z,98614.13
2023-05-15T19:10:32.397Z,98627.00
2023-05-15T19:13:00.327Z,98630.50
2023-05-15T19:15:28.430Z,98632.06
2023-05-15T19:17:56.489Z,98626.22
2023-05-15T19:20:26.805Z,98634.00
2023-05-15T19:22:54.888Z,98630.44
2023-05-15T19:25:22.923Z,98637.47
2023-05-15T19:27:50.921Z,98630.03
2023-05-15T19:30:19.049Z,98626.50
2023-05-15T19:32:47.371Z,98604.63
2023-05-15T19:35:15.534Z,98592.97
2023-05-15T19:37:45.233Z,98589.06
2023-05-15T19:40:13.951Z,98580.50
2023-05-15T19:42:41.833Z,98569.53
2023-05-15T19:45:10.708Z,98559.72
2023-05-15T19:47:38.865Z,98560.09
2023-05-15T19:50:08.270Z,98558.88
2023-05-15T19:52:36.817Z,98562.34
2023-05-15T19:55:07.276Z,98554.06
2023-05-15T19:57:35.963Z,98552.41
2023-05-15T20:00:04.762Z,98554.69
2023-05-15T20:02:32.930Z,98552.25
2023-05-15T20:05:01.109Z,98547.09
2023-05-15T20:07:29.450Z,98547.81
2023-05-15T20:09:57.455Z,98549.25
2023-05-15T20:12:26.832Z,98553.88
2023-05-15T20:14:54.869Z,98548.81
2023-05-15T20:17:22.922Z,98542.50
2023-05-15T20:19:53.948Z,98549.13
2023-05-15T20:22:21.969Z,98543.56
2023-05-15T20:24:50.114Z,98546.25
2023-05-15T20:27:18.090Z,98544.59
2023-05-15T20:29:47.503Z,98532.03
2023-05-15T20:32:15.673Z,98526.94
2023-05-15T20:34:45.725Z,98526.53
2023-05-15T20:37:13.899Z,98515.50
2023-05-15T20:39:42.036Z,98523.25
2023-05-15T20:42:09.922Z,98515.75
2023-05-15T20:44:39.335Z,98510.97
2023-05-15T20:47:08.858Z,98521.78
2023-05-15T20:49:36.901Z,98518.97
2023-05-15T20:52:05.256Z,98521.63
2023-05-15T20:54:33.170Z,98518.81
2023-05-15T20:57:01.169Z,98528.47
2023-05-15T20:59:29.096Z,98519.53
2023-05-15T21:01:58.862Z,98519.53
2023-05-15T21:04:28.535Z,98511.31
2023-05-15T21:06:56.535Z,98529.53
2023-05-15T21:09:24.395Z,98516.22
2023-05-15T21:11:52.464Z,98518.13
2023-05-15T21:14:20.416Z,98512.59
2023-05-15T21:16:48.556Z,98517.19
2023-05-15T21:19:16.658Z,98513.97
2023-05-15T21:21:46.178Z,98515.06
2023-05-15T21:24:14.185Z,98509.94
2023-05-15T21:26:42.123Z,98505.56
2023-05-15T21:29:10.099Z,98512.13
2023-05-15T21:31:38.064Z,98519.47
2023-05-15T21:34:06.000Z,98520.94
2023-05-15T21:36:34.318Z,98517.34
2023-05-15T21:39:04.640Z,98520.81
2023-05-15T21:41:32.570Z,98517.69
2023-05-15T21:44:00.489Z,98533.59
2023-05-15T21:46:28.478Z,98537.44
2023-05-15T21:48:56.518Z,98533.88
2023-05-15T21:51:24.420Z,98528.75
2023-05-15T21:53:52.348Z,98536.06
2023-05-15T21:56:21.731Z,98533.66
2023-05-15T21:58:49.768Z,98543.72
2023-05-15T22:01:18.016Z,98538.97
2023-05-15T22:03:46.285Z,98528.00
2023-05-15T22:06:14.394Z,98531.13
2023-05-15T22:08:42.208Z,98535.75
2023-05-15T22:11:10.258Z,98534.56
2023-05-15T22:13:39.561Z,98537.19
2023-05-15T22:16:07.832Z,98532.03
2023-05-15T22:18:35.747Z,98531.22
2023-05-15T22:21:03.849Z,98537.00
2023-05-15T22:23:32.225Z,98532.28
2023-05-15T22:26:00.956Z,98538.44
2023-05-15T22:28:28.883Z,98535.31
2023-05-15T22:30:58.233Z,98531.63
2023-05-15T22:33:27.125Z,98540.47
2023-05-15T22:35:55.152Z,98541.09
2023-05-15T22:38:23.201Z,98530.16
2023-05-15T22:40:51.609Z,98537.09
2023-05-15T22:43:20.151Z,98537.81
2023-05-15T22:45:48.191Z,98543.19
2023-05-15T22:48:21.260Z,98547.81
2023-05-15T22:50:49.252Z,98545.91
2023-05-15T22:53:17.312Z,98543.97
2023-05-15T22:55:46.013Z,98544.03
2023-05-15T22:58:14.616Z,98539.81
2023-05-15T23:00:42.681Z,98548.41
2023-05-15T23:03:10.767Z,98557.78
2023-05-15T23:05:40.680Z,98559.78
2023-05-15T23:08:09.442Z,98555.47
2023-05-15T23:10:37.655Z,98557.78
2023-05-15T23:13:05.721Z,98560.91
2023-05-15T23:15:33.562Z,98554.41
2023-05-15T23:18:01.479Z,98564.56
2023-05-15T23:20:30.032Z,98561.50
2023-05-15T23:22:59.557Z,98560.53
2023-05-15T23:25:27.522Z,98566.44
2023-05-15T23:27:55.576Z,98565.38
2023-05-15T23:30:23.698Z,98558.09
2023-05-15T23:32:51.742Z,98561.28
2023-05-15T23:35:19.859Z,98557.13
2023-05-15T23:37:47.777Z,98556.03
2023-05-15T23:40:17.259Z,98567.28
2023-05-15T23:42:45.182Z,98559.13
2023-05-15T23:45:14.146Z,98566.78
2023-05-15T23:47:42.556Z,98564.38
2023-05-15T23:50:10.807Z,98560.38
2023-05-15T23:52:38.665Z,98559.50
2023-05-15T23:55:07.126Z,98549.34
2023-05-15T23:57:36.509Z,98550.56
